Time;durP1;ratioP1;P1;durP2;ratioP2;P2;SDS_P1;SDS_P2;PMS_P1;PMS_P2;Temp;Humidity;BMP_temperature;BMP_pressure;BME280_temperature;BME280_humidity;BME280_pressure;Samples;Min_cycle;Max_cycle;Signal;HPM_P1;HPM_P2
2023/09/15 04:52:03;;;;;;;;;;;;;;;17.67;100.00;100106.55;107407;1277;25314;-35
2023/09/15 04:54:31;;;;;;;;;;;;;;;17.66;100.00;100112.94;107081;1276;24012;-37
2023/09/15 04:56:58;;;;;;;;;;;;;;;17.65;100.00;100114.56;107607;1266;24358;-37
2023/09/15 04:59:25;;;;;;;;;;;;;;;17.65;100.00;100115.81;107823;1269;22508;-37
2023/09/15 05:01:51;;;;;;;;;;;;;;;17.63;100.00;100115.52;109720;1275;23294;-37
2023/09/15 05:04:19;;;;;;;;;;;;;;;17.63;100.00;100117.63;109688;1266;22522;-37
2023/09/15 05:06:46;;;;;;;;;;;;;;;17.64;100.00;100126.95;109059;1269;22918;-44
2023/09/15 05:09:18;;;;;;;;;;;;;;;17.64;100.00;100126.95;107883;1270;22520;-36
2023/09/15 05:11:44;;;;;;;;;;;;;;;17.67;100.00;100131.25;109756;1269;23389;-37
2023/09/15 05:14:12;;;;;;;;;;;;;;;17.70;100.00;100130.82;109006;1266;25545;-37
2023/09/15 05:16:38;;;;;;;;;;;;;;;17.71;100.00;100130.09;108818;1275;23128;-38
2023/09/15 05:19:05;;;;;;;;;;;;;;;17.71;100.00;100136.27;110022;1266;22467;-38
2023/09/15 05:21:32;;;;;;;;;;;;;;;17.71;100.00;100139.06;109800;1270;23075;-37
2023/09/15 05:24:00;;;;;;;;;;;;;;;17.75;100.00;100144.09;110058;1278;22859;-38
2023/09/15 05:26:27;;;;;;;;;;;;;;;17.79;100.00;100145.36;109875;1270;22484;-38
2023/09/15 05:28:54;;;;;;;;;;;;;;;17.89;100.00;100142.23;109797;1276;23594;-45
2023/09/15 05:31:25;;;;;;;;;;;;;;;18.01;100.00;100138.84;109790;1270;22840;-38
2023/09/15 05:33:54;;;;;;;;;;;;;;;18.06;100.00;100137.23;109513;1278;23346;-37
2023/09/15 05:36:21;;;;;;;;;;;;;;;18.08;100.00;100136.30;109859;1275;22551;-43
2023/09/15 05:38:48;;;;;;;;;;;;;;;18.11;100.00;100139.95;109805;1276;23278;-38
2023/09/15 05:41:15;;;;;;;;;;;;;;;18.13;100.00;100141.10;109705;1272;23115;-38
2023/09/15 05:43:43;;;;;;;;;;;;;;;18.14;100.00;100145.45;109846;1269;22411;-44
2023/09/15 05:46:09;;;;;;;;;;;;;;;18.16;100.00;100148.42;110040;1272;22458;-44
2023/09/15 05:48:37;;;;;;;;;;;;;;;18.17;100.00;100153.14;109577;1276;22836;-38
2023/09/15 05:51:04;;;;;;;;;;;;;;;18.20;100.00;100150.20;109803;1267;22656;-38
2023/09/15 05:53:31;;;;;;;;;;;;;;;18.22;100.00;100154.58;109872;1270;23021;-39
2023/09/15 05:55:58;;;;;;;;;;;;;;;18.25;100.00;100152.67;109355;1271;22996;-38
2023/09/15 05:58:25;;;;;;;;;;;;;;;18.29;100.00;100157.29;109670;1277;22521;-45
2023/09/15 06:00:56;;;;;;;;;;;;;;;18.33;100.00;100161.05;108185;1271;25226;-44
2023/09/15 06:03:25;;;;;;;;;;;;;;;18.35;100.00;100160.27;109382;1270;22508;-44
2023/09/15 06:05:52;;;;;;;;;;;;;;;18.37;100.00;100161.45;109491;1268;22479;-37
2023/09/15 06:08:21;;;;;;;;;;;;;;;18.41;100.00;100159.39;109656;1266;22555;-44
2023/09/15 06:10:48;;;;;;;;;;;;;;;18.44;100.00;100158.40;108596;1266;22494;-44
2023/09/15 06:13:15;;;;;;;;;;;;;;;18.48;100.00;100156.67;109018;1270;22651;-37
2023/09/15 06:15:42;;;;;;;;;;;;;;;18.53;100.00;100165.32;109648;1275;22449;-37
2023/09/15 06:18:28;;;;;;;;;;;;;;;18.57;100.00;100164.83;109619;1269;23155;-38
2023/09/15 06:27:18;;;;;;;;;;;;;;;18.79;100.00;100183.34;101708;1271;10264152;-45
2023/09/15 06:29:46;;;;;;;;;;;;;;;18.82;100.00;100187.29;109271;1275;22503;-38
2023/09/15 06:32:14;;;;;;;;;;;;;;;18.86;100.00;100183.06;109860;1261;24218;-45
2023/09/15 06:34:41;;;;;;;;;;;;;;;18.92;100.00;100185.01;109905;1273;22511;-43
2023/09/15 06:37:13;;;;;;;;;;;;;;;18.99;100.00;100185.46;109909;1269;23338;-45
2023/09/15 06:39:52;;;;;;;;;;;;;;;19.08;100.00;100189.36;109960;1275;22414;-44
2023/09/15 06:42:19;;;;;;;;;;;;;;;19.16;100.00;100185.00;109976;1275;22452;-38
2023/09/15 06:44:45;;;;;;;;;;;;;;;19.22;100.00;100188.86;110043;1277;22911;-38
2023/09/15 06:47:13;;;;;;;;;;;;;;;19.26;100.00;100192.05;109901;1276;22579;-39
2023/09/15 06:49:40;;;;;;;;;;;;;;;19.31;100.00;100198.04;110078;1266;22954;-38
2023/09/15 06:52:12;;;;;;;;;;;;;;;19.38;100.00;100199.73;110111;1275;22991;-38
2023/09/15 06:54:39;;;;;;;;;;;;;;;19.43;100.00;100207.31;110145;1273;22862;-38
2023/09/15 06:57:05;;;;;;;;;;;;;;;19.50;100.00;100213.79;108519;1273;23180;-39
2023/09/15 06:59:33;;;;;;;;;;;;;;;19.57;100.00;100212.30;108049;1269;24222;-38
2023/09/15 07:02:02;;;;;;;;;;;;;;;19.68;100.00;100209.40;109323;1266;23049;-44
2023/09/15 07:04:29;;;;;;;;;;;;;;;19.81;100.00;100206.25;109579;1275;22490;-45
2023/09/15 07:06:56;;;;;;;;;;;;;;;19.93;100.00;100205.92;108833;1267;23352;-45
2023/09/15 07:09:24;;;;;;;;;;;;;;;20.07;100.00;100206.63;110085;1266;22419;-45
2023/09/15 07:11:50;;;;;;;;;;;;;;;20.20;100.00;100203.79;110156;1272;22452;-44
2023/09/15 07:14:18;;;;;;;;;;;;;;;20.31;100.00;100202.44;109354;1270;22516;-44
2023/09/15 07:16:44;;;;;;;;;;;;;;;20.40;100.00;100209.14;110006;1268;22547;-45
2023/09/15 07:19:11;;;;;;;;;;;;;;;20.42;100.00;100211.19;109449;1273;23102;-39
2023/09/15 07:21:40;;;;;;;;;;;;;;;20.38;100.00;100212.78;109876;1267;22667;-48
2023/09/15 07:24:09;;;;;;;;;;;;;;;20.32;100.00;100212.14;109547;1275;23846;-45
2023/09/15 07:26:38;;;;;;;;;;;;;;;20.31;100.00;100208.11;108277;1269;23531;-40
2023/09/15 07:29:05;;;;;;;;;;;;;;;20.28;100.00;100211.27;107962;1272;22524;-37
2023/09/15 07:31:33;;;;;;;;;;;;;;;20.19;100.00;100214.28;109244;1276;22544;-46
2023/09/15 07:34:01;;;;;;;;;;;;;;;20.10;100.00;100212.32;108783;1269;22603;-37
2023/09/15 07:36:28;;;;;;;;;;;;;;;20.04;100.00;100211.89;109854;1260;23664;-44
2023/09/15 07:38:55;;;;;;;;;;;;;;;20.01;100.00;100207.94;107808;1278;24217;-44
2023/09/15 07:41:22;;;;;;;;;;;;;;;19.97;100.00;100205.60;109074;1270;25268;-44
2023/09/15 07:43:50;;;;;;;;;;;;;;;19.92;100.00;100204.36;109586;1270;22467;-45
2023/09/15 07:46:17;;;;;;;;;;;;;;;19.89;100.00;100204.16;109088;1270;22516;-43
2023/09/15 07:48:44;;;;;;;;;;;;;;;19.90;100.00;100205.52;107877;1276;24212;-38
2023/09/15 07:51:15;;;;;;;;;;;;;;;19.99;100.00;100205.19;108792;1277;22503;-38
2023/09/15 07:53:42;;;;;;;;;;;;;;;20.12;100.00;100208.16;108534;1278;22566;-37
2023/09/15 07:56:09;;;;;;;;;;;;;;;20.31;100.00;100209.89;108804;1266;22506;-37
2023/09/15 07:58:36;;;;;;;;;;;;;;;20.52;100.00;100207.08;109042;1276;22516;-38
2023/09/15 08:01:03;;;;;;;;;;;;;;;20.72;100.00;100207.28;110157;1268;23283;-38
2023/09/15 08:03:30;;;;;;;;;;;;;;;20.92;100.00;100200.36;110092;1270;22497;-38
2023/09/15 08:05:57;;;;;;;;;;;;;;;21.10;100.00;100206.30;110015;1276;22501;-44
2023/09/15 08:08:28;;;;;;;;;;;;;;;21.20;100.00;100204.61;109256;1269;23258;-37
2023/09/15 08:10:56;;;;;;;;;;;;;;;21.29;100.00;100204.96;109345;1277;22491;-38
2023/09/15 08:13:22;;;;;;;;;;;;;;;21.31;100.00;100205.58;109988;1277;22433;-37
2023/09/15 08:15:51;;;;;;;;;;;;;;;21.29;100.00;100210.63;109860;1269;23805;-38
2023/09/15 08:18:18;;;;;;;;;;;;;;;21.27;100.00;100209.45;109803;1277;22547;-37
2023/09/15 08:20:46;;;;;;;;;;;;;;;21.28;100.00;100212.08;108578;1269;22697;-43
2023/09/15 08:23:15;;;;;;;;;;;;;;;21.23;100.00;100212.11;109316;1276;22709;-44
2023/09/15 08:25:46;;;;;;;;;;;;;;;21.15;100.00;100211.96;108272;1276;23407;-37
2023/09/15 08:28:14;;;;;;;;;;;;;;;21.03;100.00;100217.97;109516;1276;23486;-43
2023/09/15 08:30:40;;;;;;;;;;;;;;;20.93;100.00;100221.08;109524;1259;22515;-37
2023/09/15 08:33:09;;;;;;;;;;;;;;;20.86;100.00;100223.33;109511;1269;22514;-39
2023/09/15 08:35:36;;;;;;;;;;;;;;;20.81;100.00;100225.67;109090;1270;22490;-43
2023/09/15 08:38:04;;;;;;;;;;;;;;;20.79;100.00;100230.02;109995;1270;22508;-44
2023/09/15 08:40:38;;;;;;;;;;;;;;;20.80;100.00;100235.13;110077;1264;22447;-37
2023/09/15 08:43:05;;;;;;;;;;;;;;;20.82;100.00;100235.04;109277;1262;24186;-45
2023/09/15 08:45:33;;;;;;;;;;;;;;;20.83;100.00;100234.15;110045;1268;23013;-37
2023/09/15 08:48:03;;;;;;;;;;;;;;;20.79;100.00;100240.33;110142;1269;23182;-44
2023/09/15 08:50:30;;;;;;;;;;;;;;;20.78;100.00;100239.83;107847;1276;24307;-45
2023/09/15 08:52:57;;;;;;;;;;;;;;;20.78;100.00;100238.77;109045;1276;22523;-45
2023/09/15 08:55:27;;;;;;;;;;;;;;;20.80;100.00;100240.10;109846;1275;23336;-38
2023/09/15 08:57:57;;;;;;;;;;;;;;;20.83;100.00;100245.11;109948;1274;22486;-42
2023/09/15 09:00:24;;;;;;;;;;;;;;;20.85;100.00;100250.33;110152;1273;22586;-45
2023/09/15 09:02:51;;;;;;;;;;;;;;;20.86;100.00;100252.59;110002;1269;22464;-45
2023/09/15 09:05:18;;;;;;;;;;;;;;;20.86;100.00;100252.40;109972;1266;22957;-45
2023/09/15 09:07:45;;;;;;;;;;;;;;;20.86;100.00;100253.27;109979;1270;22436;-45
2023/09/15 09:10:12;;;;;;;;;;;;;;;20.89;100.00;100247.83;109982;1272;23331;-45
2023/09/15 09:12:38;;;;;;;;;;;;;;;20.98;100.00;100244.98;109886;1269;23087;-38
2023/09/15 09:15:05;;;;;;;;;;;;;;;21.08;100.00;100245.23;109926;1270;23187;-37
2023/09/15 09:17:32;;;;;;;;;;;;;;;21.18;99.54;100245.66;110124;1270;23226;-38
2023/09/15 09:20:00;;;;;;;;;;;;;;;21.32;97.56;100247.73;109742;1270;22497;-44
2023/09/15 09:22:31;;;;;;;;;;;;;;;21.48;96.72;100247.01;110044;1275;22455;-45
2023/09/15 09:24:58;;;;;;;;;;;;;;;21.63;96.12;100249.36;109417;1269;25481;-37
2023/09/15 09:27:32;;;;;;;;;;;;;;;21.73;94.57;100252.41;110209;1269;22452;-46
2023/09/15 09:30:00;;;;;;;;;;;;;;;21.75;93.98;100253.55;110197;1266;22398;-46
2023/09/15 09:32:27;;;;;;;;;;;;;;;21.75;93.94;100257.86;110107;1269;22570;-44
2023/09/15 09:34:54;;;;;;;;;;;;;;;21.73;92.90;100256.00;110116;1270;22418;-44
2023/09/15 09:37:25;;;;;;;;;;;;;;;21.75;93.79;100262.79;110098;1272;22440;-37
2023/09/15 09:39:53;;;;;;;;;;;;;;;21.83;93.34;100258.20;109194;1273;22557;-37
2023/09/15 09:42:22;;;;;;;;;;;;;;;21.87;92.30;100255.69;110081;1275;22533;-38
2023/09/15 09:44:48;;;;;;;;;;;;;;;21.89;91.30;100257.39;110172;1269;22862;-39
2023/09/15 09:47:15;;;;;;;;;;;;;;;21.88;90.86;100258.11;110185;1266;22470;-39
2023/09/15 09:49:42;;;;;;;;;;;;;;;21.86;89.80;100259.30;110166;1273;22995;-44
2023/09/15 09:52:08;;;;;;;;;;;;;;;21.79;89.80;100261.55;110008;1269;22652;-45
2023/09/15 09:54:35;;;;;;;;;;;;;;;21.74;90.06;100263.57;109983;1265;22554;-44
2023/09/15 09:57:04;;;;;;;;;;;;;;;21.68;90.26;100259.22;110006;1269;22443;-39
2023/09/15 09:59:31;;;;;;;;;;;;;;;21.67;90.81;100261.59;109564;1270;22483;-38
2023/09/15 10:01:58;;;;;;;;;;;;;;;21.66;89.98;100254.88;109852;1260;22929;-37
2023/09/15 10:04:25;;;;;;;;;;;;;;;21.69;89.70;100256.71;109877;1272;22736;-45
2023/09/15 10:06:58;;;;;;;;;;;;;;;21.78;88.98;100256.27;109998;1269;23456;-38
2023/09/15 10:09:25;;;;;;;;;;;;;;;21.89;86.98;100255.92;109828;1259;23169;-38
2023/09/15 10:11:52;;;;;;;;;;;;;;;22.05;86.63;100256.24;109889;1273;22923;-38
2023/09/15 10:14:19;;;;;;;;;;;;;;;22.23;85.86;100260.75;110024;1272;22437;-41
2023/09/15 10:16:46;;;;;;;;;;;;;;;22.48;84.08;100257.02;109809;1262;23315;-45
2023/09/15 10:19:13;;;;;;;;;;;;;;;22.76;83.14;100252.39;109948;1263;22528;-45
2023/09/15 10:21:40;;;;;;;;;;;;;;;23.11;82.86;100249.05;109881;1272;23128;-45
2023/09/15 10:24:08;;;;;;;;;;;;;;;23.54;80.99;100253.86;109834;1276;22495;-44
2023/09/15 10:26:38;;;;;;;;;;;;;;;23.97;77.95;100257.00;109930;1276;22445;-45
2023/09/15 10:29:04;;;;;;;;;;;;;;;24.22;75.47;100248.13;109917;1272;22455;-45
2023/09/15 10:31:32;;;;;;;;;;;;;;;24.13;74.91;100255.95;109927;1277;23393;-45
2023/09/15 10:34:00;;;;;;;;;;;;;;;23.90;75.45;100254.72;110072;1275;23638;-45
2023/09/15 10:36:27;;;;;;;;;;;;;;;23.72;76.43;100255.93;109925;1266;22524;-44
2023/09/15 10:38:54;;;;;;;;;;;;;;;23.84;76.42;100252.00;110055;1275;23193;-44
2023/09/15 10:41:27;;;;;;;;;;;;;;;24.02;75.98;100251.19;109987;1269;23233;-46
2023/09/15 10:43:54;;;;;;;;;;;;;;;24.14;75.00;100250.70;110137;1267;23009;-44
2023/09/15 10:46:20;;;;;;;;;;;;;;;24.04;73.51;100251.82;110193;1270;22539;-44
2023/09/15 10:48:48;;;;;;;;;;;;;;;23.80;73.49;100251.02;110208;1276;22456;-44
2023/09/15 10:51:19;;;;;;;;;;;;;;;23.56;74.00;100254.27;110186;1260;22424;-44
2023/09/15 10:53:50;;;;;;;;;;;;;;;23.36;74.73;100250.35;110101;1275;23266;-45
2023/09/15 10:56:18;;;;;;;;;;;;;;;23.40;74.85;100251.60;109987;1276;23528;-45
2023/09/15 10:58:48;;;;;;;;;;;;;;;23.55;74.48;100248.45;110125;1270;22420;-44
2023/09/15 11:01:15;;;;;;;;;;;;;;;23.87;73.73;100247.08;110151;1276;22443;-44
2023/09/15 11:03:42;;;;;;;;;;;;;;;23.98;72.67;100251.79;110161;1268;22452;-47
2023/09/15 11:06:13;;;;;;;;;;;;;;;23.87;72.22;100252.42;109431;1276;22996;-44
2023/09/15 11:08:39;;;;;;;;;;;;;;;23.66;72.82;100254.65;110036;1266;22474;-44
2023/09/15 11:11:10;;;;;;;;;;;;;;;23.47;73.62;100254.02;109402;1271;22542;-44
2023/09/15 11:13:37;;;;;;;;;;;;;;;23.34;74.24;100253.83;109971;1271;22490;-44
2023/09/15 11:16:05;;;;;;;;;;;;;;;23.29;74.49;100253.58;110005;1269;22544;-45
2023/09/15 11:18:32;;;;;;;;;;;;;;;23.31;75.15;100251.52;109311;1276;22540;-46
2023/09/15 11:20:59;;;;;;;;;;;;;;;23.43;74.68;100254.80;109767;1277;23330;-46
2023/09/15 11:23:26;;;;;;;;;;;;;;;23.52;75.03;100250.39;109820;1277;22492;-46
2023/09/15 11:26:00;;;;;;;;;;;;;;;23.59;75.12;100250.35;110177;1270;22455;-44
2023/09/15 11:28:33;;;;;;;;;;;;;;;23.63;74.59;100259.27;110221;1270;23276;-44
2023/09/15 11:31:00;;;;;;;;;;;;;;;23.56;73.70;100261.91;110228;1266;22970;-44
2023/09/15 11:33:27;;;;;;;;;;;;;;;23.45;73.92;100260.95;110202;1274;22683;-45
2023/09/15 11:35:54;;;;;;;;;;;;;;;23.34;74.15;100259.20;110020;1269;23308;-46
2023/09/15 11:38:21;;;;;;;;;;;;;;;23.30;74.83;100257.77;110174;1271;22420;-44
2023/09/15 11:40:48;;;;;;;;;;;;;;;23.33;75.64;100260.27;110158;1275;22586;-46
2023/09/15 11:43:15;;;;;;;;;;;;;;;23.36;75.63;100258.17;110187;1262;22457;-39
2023/09/15 11:45:41;;;;;;;;;;;;;;;23.35;75.35;100257.35;110205;1270;22628;-37
2023/09/15 11:48:09;;;;;;;;;;;;;;;23.37;75.53;100257.23;109649;1274;22491;-38
2023/09/15 11:50:36;;;;;;;;;;;;;;;23.45;75.32;100258.73;109745;1266;22525;-37
2023/09/15 11:53:03;;;;;;;;;;;;;;;23.51;74.67;100259.88;109035;1269;22654;-39
2023/09/15 11:55:31;;;;;;;;;;;;;;;23.53;73.75;100261.86;109321;1270;22597;-37
2023/09/15 11:58:01;;;;;;;;;;;;;;;23.51;73.27;100260.07;110033;1273;22523;-41
2023/09/15 12:00:30;;;;;;;;;;;;;;;23.44;74.12;100260.63;109965;1272;22496;-37
2023/09/15 12:02:58;;;;;;;;;;;;;;;23.34;74.20;100263.10;110028;1270;23480;-38
2023/09/15 12:05:25;;;;;;;;;;;;;;;23.25;74.15;100264.98;110081;1276;22461;-44
2023/09/15 12:07:51;;;;;;;;;;;;;;;23.17;74.76;100263.48;110028;1276;22453;-37
2023/09/15 12:10:19;;;;;;;;;;;;;;;23.14;75.16;100262.92;110035;1274;22406;-37
2023/09/15 12:12:46;;;;;;;;;;;;;;;23.15;75.52;100260.38;110011;1275;22441;-38
2023/09/15 12:15:16;;;;;;;;;;;;;;;23.18;75.34;100266.79;110085;1276;23011;-38
2023/09/15 12:17:46;;;;;;;;;;;;;;;23.18;74.87;100264.86;110031;1274;23199;-38
2023/09/15 12:20:14;;;;;;;;;;;;;;;23.17;75.12;100267.54;110093;1274;22986;-38
2023/09/15 12:22:41;;;;;;;;;;;;;;;23.17;74.93;100267.54;110013;1275;23182;-38
2023/09/15 12:25:12;;;;;;;;;;;;;;;23.18;74.74;100267.52;110021;1276;23228;-38
2023/09/15 12:27:39;;;;;;;;;;;;;;;23.19;74.20;100266.55;109964;1276;23249;-37
2023/09/15 12:30:07;;;;;;;;;;;;;;;23.23;73.10;100267.79;109965;1276;22483;-37
2023/09/15 12:32:34;;;;;;;;;;;;;;;23.24;72.76;100265.94;110033;1270;22973;-37
2023/09/15 12:35:05;;;;;;;;;;;;;;;23.25;73.57;100266.05;110124;1276;22435;-39
2023/09/15 12:37:35;;;;;;;;;;;;;;;23.25;74.59;100269.24;110017;1276;22463;-44
2023/09/15 12:40:02;;;;;;;;;;;;;;;23.20;74.80;100272.55;110098;1276;22457;-45
2023/09/15 12:42:28;;;;;;;;;;;;;;;23.14;75.32;100277.34;110054;1276;22446;-44
2023/09/15 12:44:55;;;;;;;;;;;;;;;23.08;76.12;100275.33;110130;1273;22466;-45
2023/09/15 12:47:22;;;;;;;;;;;;;;;23.04;76.35;100275.17;110133;1269;22530;-45
2023/09/15 12:49:49;;;;;;;;;;;;;;;22.99;76.44;100272.95;110236;1272;22520;-39
2023/09/15 12:52:15;;;;;;;;;;;;;;;22.97;76.90;100275.74;110157;1277;22468;-38
2023/09/15 12:54:42;;;;;;;;;;;;;;;22.98;77.26;100273.91;110248;1267;22431;-38
2023/09/15 12:57:09;;;;;;;;;;;;;;;22.97;76.71;100274.81;110165;1270;22457;-39
2023/09/15 12:59:35;;;;;;;;;;;;;;;22.97;77.17;100271.98;110281;1276;22511;-44
2023/09/15 13:02:02;;;;;;;;;;;;;;;22.97;76.85;100274.46;110099;1276;22503;-44
2023/09/15 13:04:30;;;;;;;;;;;;;;;22.98;76.47;100273.55;109871;1266;22572;-37
2023/09/15 13:06:58;;;;;;;;;;;;;;;23.00;76.25;100275.39;110157;1275;23229;-44
2023/09/15 13:09:24;;;;;;;;;;;;;;;23.02;76.38;100277.06;110067;1276;22611;-45
2023/09/15 13:11:51;;;;;;;;;;;;;;;23.05;76.07;100274.23;109302;1276;23125;-44
2023/09/15 13:14:18;;;;;;;;;;;;;;;23.04;74.83;100274.64;110246;1277;22457;-43
2023/09/15 13:16:45;;;;;;;;;;;;;;;22.98;74.74;100272.48;110239;1267;22506;-38
2023/09/15 13:19:11;;;;;;;;;;;;;;;22.92;75.17;100272.09;110334;1267;22531;-37
2023/09/15 13:21:38;;;;;;;;;;;;;;;22.88;75.43;100274.02;110353;1276;22431;-44
2023/09/15 13:24:05;;;;;;;;;;;;;;;22.85;75.54;100274.69;110306;1263;22489;-38
2023/09/15 13:26:31;;;;;;;;;;;;;;;22.83;76.20;100271.38;108710;1266;22521;-44
2023/09/15 13:28:59;;;;;;;;;;;;;;;22.83;76.57;100271.38;107482;1276;25292;-38
2023/09/15 13:31:25;;;;;;;;;;;;;;;22.83;76.50;100273.73;107913;1266;22591;-45
2023/09/15 13:33:52;;;;;;;;;;;;;;;22.81;76.73;100270.66;108828;1259;22547;-45
2023/09/15 13:36:19;;;;;;;;;;;;;;;22.80;76.94;100269.27;110349;1276;23500;-38
2023/09/15 13:38:46;;;;;;;;;;;;;;;22.80;76.71;100274.79;110322;1266;23334;-38
2023/09/15 13:41:13;;;;;;;;;;;;;;;22.81;76.72;100273.31;110332;1276;22445;-38
2023/09/15 13:43:40;;;;;;;;;;;;;;;22.81;76.75;100271.54;110346;1276;22526;-36
2023/09/15 13:46:08;;;;;;;;;;;;;;;22.81;76.80;100273.64;110351;1276;22501;-37
2023/09/15 13:48:35;;;;;;;;;;;;;;;22.80;76.51;100274.39;110353;1266;22557;-38
2023/09/15 13:51:02;;;;;;;;;;;;;;;22.79;76.61;100273.93;110307;1266;22542;-38
2023/09/15 13:53:34;;;;;;;;;;;;;;;22.78;76.45;100276.98;110277;1272;22459;-37
2023/09/15 13:56:05;;;;;;;;;;;;;;;22.77;76.34;100275.27;110264;1276;22443;-37
2023/09/15 13:58:39;;;;;;;;;;;;;;;22.77;76.41;100275.59;110295;1276;22509;-45
2023/09/15 14:01:06;;;;;;;;;;;;;;;22.77;76.92;100277.42;108141;1272;23852;-44
2023/09/15 14:03:32;;;;;;;;;;;;;;;22.75;76.97;100275.21;108771;1269;22541;-45
2023/09/15 14:05:59;;;;;;;;;;;;;;;22.72;77.25;100279.11;108919;1266;22633;-38
2023/09/15 14:08:26;;;;;;;;;;;;;;;22.66;77.88;100287.94;107690;1266;23423;-37
2023/09/15 14:10:53;;;;;;;;;;;;;;;22.58;78.38;100287.26;107723;1276;22505;-45
2023/09/15 14:13:20;;;;;;;;;;;;;;;22.47;78.47;100284.77;107691;1267;22509;-45
2023/09/15 14:15:47;;;;;;;;;;;;;;;22.39;78.74;100287.16;107632;1266;23370;-37
